createdAt,value
2022-08-28T00:00:00.875Z,16.39
2022-08-28T00:01:00.864Z,16.38
2022-08-28T00:02:00.853Z,16.32
2022-08-28T00:03:00.917Z,16.32
2022-08-28T00:04:00.824Z,16.31
2022-08-28T00:05:00.849Z,16.29
2022-08-28T00:06:00.805Z,16.29
2022-08-28T00:07:00.795Z,16.28
2022-08-28T00:08:00.783Z,16.28
2022-08-28T00:09:00.793Z,16.28
2022-08-28T00:10:00.756Z,16.28
2022-08-28T00:11:00.753Z,16.26
2022-08-28T00:12:00.737Z,16.29
2022-08-28T00:13:00.734Z,16.28
2022-08-28T00:14:00.746Z,16.29
2022-08-28T00:15:00.704Z,16.29
2022-08-28T00:16:00.739Z,16.31
2022-08-28T00:17:00.686Z,16.31
2022-08-28T00:18:00.666Z,16.35
2022-08-28T00:19:00.664Z,16.35
2022-08-28T00:20:00.666Z,16.39
2022-08-28T00:21:00.640Z,16.41
2022-08-28T00:22:00.617Z,16.43
2022-08-28T00:23:00.626Z,16.47
2022-08-28T00:24:00.595Z,16.50
2022-08-28T00:25:00.644Z,16.53
2022-08-28T00:26:00.577Z,16.54
2022-08-28T00:27:00.567Z,16.56
2022-08-28T00:28:00.557Z,16.58
2022-08-28T00:29:00.550Z,16.64
2022-08-28T00:30:00.535Z,16.65
2022-08-28T00:31:00.573Z,16.68
2022-08-28T00:32:00.515Z,16.71
2022-08-28T00:33:00.506Z,16.74
2022-08-28T00:34:00.518Z,16.76
2022-08-28T00:35:00.476Z,16.79
2022-08-28T00:36:00.486Z,16.81
2022-08-28T00:37:00.456Z,16.84
2022-08-28T00:38:00.453Z,16.86
2022-08-28T00:39:00.437Z,16.87
2022-08-28T00:40:00.507Z,16.87
2022-08-28T00:41:00.422Z,16.89
2022-08-28T00:42:00.439Z,16.90
2022-08-28T00:43:00.438Z,16.91
2022-08-28T00:44:00.368Z,16.91
2022-08-28T00:45:00.380Z,16.91
2022-08-28T00:46:00.433Z,16.91
2022-08-28T00:47:00.347Z,16.91
2022-08-28T00:48:00.347Z,16.90
2022-08-28T00:49:00.354Z,16.89
2022-08-28T00:50:00.308Z,16.91
2022-08-28T00:51:00.526Z,16.94
2022-08-28T00:52:00.298Z,16.94
2022-08-28T00:53:00.296Z,16.96
2022-08-28T00:54:03.106Z,16.97
2022-08-28T00:55:01.248Z,16.97
2022-08-28T00:56:00.244Z,16.99
2022-08-28T00:57:00.227Z,16.97
2022-08-28T00:58:00.209Z,16.99
2022-08-28T00:59:00.230Z,16.99
2022-08-28T01:00:00.219Z,17.02
2022-08-28T01:01:00.181Z,17.05
2022-08-28T01:02:00.208Z,17.05
2022-08-28T01:03:00.186Z,17.05
2022-08-28T01:04:00.147Z,17.06
2022-08-28T01:05:00.163Z,17.06
2022-08-28T01:06:00.167Z,17.06
2022-08-28T01:07:00.120Z,17.06
2022-08-28T01:08:00.102Z,17.06
2022-08-28T01:09:00.089Z,17.06
2022-08-28T01:10:00.081Z,17.09
2022-08-28T01:11:00.119Z,17.08
2022-08-28T01:12:00.051Z,17.08
2022-08-28T01:13:00.051Z,17.08
2022-08-28T01:14:01.980Z,17.08
2022-08-28T01:15:00.114Z,17.09
2022-08-28T01:16:00.070Z,17.09
2022-08-28T01:17:00.030Z,17.11
2022-08-28T01:18:02.561Z,17.12
2022-08-28T01:18:59.979Z,17.14
2022-08-28T01:19:59.961Z,17.14
2022-08-28T01:20:59.951Z,17.15
2022-08-28T01:21:59.940Z,17.16
2022-08-28T01:22:59.948Z,17.16
2022-08-28T01:23:59.919Z,17.19
2022-08-28T01:24:59.922Z,17.22
2022-08-28T01:25:59.902Z,17.20
2022-08-28T01:26:59.893Z,17.24
2022-08-28T01:27:59.921Z,17.24
2022-08-28T01:28:59.871Z,17.26
2022-08-28T01:29:59.843Z,17.26
2022-08-28T01:30:59.901Z,17.27
2022-08-28T01:31:59.825Z,17.27
2022-08-28T01:32:59.823Z,17.27
2022-08-28T01:33:59.826Z,17.26
2022-08-28T01:34:59.792Z,17.26
2022-08-28T01:35:59.782Z,17.29
2022-08-28T01:36:59.773Z,17.29
2022-08-28T01:37:59.754Z,17.30
2022-08-28T01:38:59.753Z,17.29
2022-08-28T01:39:59.840Z,17.30
2022-08-28T01:40:59.723Z,17.30
2022-08-28T01:41:59.714Z,17.31
2022-08-28T01:42:59.693Z,17.31
2022-08-28T01:43:59.692Z,17.31
2022-08-28T01:44:59.674Z,17.30
2022-08-28T01:45:59.752Z,17.31
2022-08-28T01:46:59.657Z,17.31
2022-08-28T01:47:59.654Z,17.30
2022-08-28T01:48:59.633Z,17.30
2022-08-28T01:49:59.624Z,17.30
2022-08-28T01:50:59.633Z,17.31
2022-08-28T01:51:59.602Z,17.31
2022-08-28T01:52:59.585Z,17.31
2022-08-28T01:53:59.583Z,17.31
2022-08-28T01:54:59.564Z,17.31
2022-08-28T01:55:59.562Z,17.31
2022-08-28T01:56:59.555Z,17.33
2022-08-28T01:57:59.534Z,17.31
2022-08-28T01:58:59.523Z,17.31
2022-08-28T01:59:59.504Z,17.31
2022-08-28T02:00:59.495Z,17.33
2022-08-28T02:01:59.551Z,17.34
2022-08-28T02:02:59.475Z,17.31
2022-08-28T02:03:59.500Z,17.33
2022-08-28T02:04:59.447Z,17.31
2022-08-28T02:05:59.444Z,17.33
2022-08-28T02:06:59.427Z,17.31
2022-08-28T02:07:59.465Z,17.30
2022-08-28T02:08:59.409Z,17.31
2022-08-28T02:09:59.396Z,17.30
2022-08-28T02:10:59.377Z,17.29
2022-08-28T02:11:59.375Z,17.30
2022-08-28T02:12:59.428Z,17.27
2022-08-28T02:13:59.375Z,17.29
2022-08-28T02:14:59.338Z,17.26
2022-08-28T02:15:59.368Z,17.26
2022-08-28T02:16:59.316Z,17.24
2022-08-28T02:17:59.315Z,17.24
2022-08-28T02:18:59.297Z,17.26
2022-08-28T02:19:59.306Z,17.24
2022-08-28T02:20:59.267Z,17.24
2022-08-28T02:21:59.269Z,17.23
2022-08-28T02:22:59.249Z,17.20
2022-08-28T02:23:59.237Z,17.22
2022-08-28T02:24:59.217Z,17.23
2022-08-28T02:25:59.228Z,17.22
2022-08-28T02:26:59.197Z,17.22
2022-08-28T02:27:59.193Z,17.22
2022-08-28T02:28:59.167Z,17.20
2022-08-28T02:29:59.168Z,17.19
2022-08-28T02:30:59.202Z,17.16
2022-08-28T02:31:59.146Z,17.15
2022-08-28T02:32:59.128Z,17.15
2022-08-28T02:33:59.126Z,17.14
2022-08-28T02:34:59.112Z,17.14
2022-08-28T02:35:59.098Z,17.12
2022-08-28T02:36:59.098Z,17.15
2022-08-28T02:38:00.536Z,17.14
2022-08-28T02:38:59.059Z,17.14
2022-08-28T02:39:59.101Z,17.14
2022-08-28T02:40:59.040Z,17.15
2022-08-28T02:41:59.065Z,17.15
2022-08-28T02:42:59.020Z,17.14
2022-08-28T02:43:59.008Z,17.15
2022-08-28T02:44:58.998Z,17.15
2022-08-28T02:45:59.002Z,17.16
2022-08-28T02:46:58.969Z,17.19
2022-08-28T02:47:58.988Z,17.20
2022-08-28T02:48:58.951Z,17.19
2022-08-28T02:49:58.941Z,17.20
2022-08-28T02:50:58.929Z,17.22
2022-08-28T02:51:58.918Z,17.22
2022-08-28T02:52:58.918Z,17.22
2022-08-28T02:53:58.910Z,17.23
2022-08-28T02:54:58.880Z,17.24
2022-08-28T02:55:58.872Z,17.24
2022-08-28T02:56:58.860Z,17.29
2022-08-28T02:57:58.849Z,17.29
2022-08-28T02:58:58.842Z,17.30
2022-08-28T02:59:58.841Z,17.30
2022-08-28T03:00:59.127Z,17.31
2022-08-28T03:01:58.812Z,17.31
2022-08-28T03:02:58.836Z,17.31
2022-08-28T03:03:58.781Z,17.34
2022-08-28T03:04:58.792Z,17.33
2022-08-28T03:05:58.770Z,17.34
2022-08-28T03:06:58.742Z,17.33
2022-08-28T03:07:58.732Z,17.34
2022-08-28T03:08:58.721Z,17.36
2022-08-28T03:09:58.720Z,17.36
2022-08-28T03:10:58.752Z,17.38
2022-08-28T03:11:58.692Z,17.36
2022-08-28T03:12:58.672Z,17.38
2022-08-28T03:13:58.662Z,17.39
2022-08-28T03:14:58.652Z,17.39
2022-08-28T03:15:58.642Z,17.42
2022-08-28T03:16:58.693Z,17.46
2022-08-28T03:17:58.623Z,17.48
2022-08-28T03:18:58.603Z,17.51
2022-08-28T03:19:58.602Z,17.52
2022-08-28T03:20:58.583Z,17.54
2022-08-28T03:21:58.573Z,17.56
2022-08-28T03:22:58.593Z,17.57
2022-08-28T03:23:58.553Z,17.59
2022-08-28T03:24:58.533Z,17.59
2022-08-28T03:25:58.532Z,17.57
2022-08-28T03:26:58.513Z,17.60
2022-08-28T03:27:58.503Z,17.60
2022-08-28T03:28:59.789Z,17.60
2022-08-28T03:29:58.486Z,17.60
2022-08-28T03:30:58.510Z,17.60
2022-08-28T03:31:58.462Z,17.63
2022-08-28T03:32:58.444Z,17.64
2022-08-28T03:33:58.463Z,17.64
2022-08-28T03:34:58.424Z,17.65
2022-08-28T03:35:58.415Z,17.65
2022-08-28T03:36:58.404Z,17.65
2022-08-28T03:37:58.394Z,17.65
2022-08-28T03:38:58.386Z,17.65
2022-08-28T03:39:58.430Z,17.65
2022-08-28T03:40:58.355Z,17.67
2022-08-28T03:41:58.355Z,17.70
2022-08-28T03:42:58.335Z,17.71
2022-08-28T03:43:58.335Z,17.68
2022-08-28T03:44:58.316Z,17.71
2022-08-28T03:45:58.380Z,17.71
2022-08-28T03:46:58.295Z,17.71
2022-08-28T03:47:58.287Z,17.72
2022-08-28T03:48:58.276Z,17.72
2022-08-28T03:49:58.267Z,17.72
2022-08-28T03:50:58.276Z,17.72
2022-08-28T03:51:58.246Z,17.71
2022-08-28T03:52:58.228Z,17.72
2022-08-28T03:53:58.226Z,17.72
2022-08-28T03:54:58.206Z,17.70
2022-08-28T03:55:58.196Z,17.71
2022-08-28T03:56:58.216Z,17.71
2022-08-28T03:57:58.177Z,17.71
2022-08-28T03:58:58.167Z,17.70
2022-08-28T03:59:58.157Z,17.70
2022-08-28T04:00:58.178Z,17.71
2022-08-28T04:01:58.137Z,17.71
2022-08-28T04:02:58.180Z,17.68
2022-08-28T04:03:58.117Z,17.68
2022-08-28T04:04:58.105Z,17.67
2022-08-28T04:05:58.088Z,17.65
2022-08-28T04:06:58.077Z,17.65
2022-08-28T04:07:58.089Z,17.63
2022-08-28T04:09:00.222Z,17.63
2022-08-28T04:09:58.047Z,17.64
2022-08-28T04:10:58.030Z,17.63
2022-08-28T04:11:58.020Z,17.63
2022-08-28T04:12:58.008Z,17.63
2022-08-28T04:13:58.042Z,17.60
2022-08-28T04:14:57.979Z,17.59
2022-08-28T04:15:58.037Z,17.59
2022-08-28T04:17:01.393Z,17.57
2022-08-28T04:17:57.957Z,17.56
2022-08-28T04:18:57.939Z,17.52
2022-08-28T04:19:57.949Z,17.52
2022-08-28T04:20:57.920Z,17.54
2022-08-28T04:21:57.909Z,17.52
2022-08-28T04:22:57.891Z,17.54
2022-08-28T04:23:57.941Z,17.54
2022-08-28T04:24:57.870Z,17.54
2022-08-28T04:25:58.021Z,17.54
2022-08-28T04:26:57.850Z,17.52
2022-08-28T04:27:57.840Z,17.52
2022-08-28T04:28:57.831Z,17.51
2022-08-28T04:29:57.823Z,17.51
2022-08-28T04:30:57.820Z,17.51
2022-08-28T04:31:57.840Z,17.49
2022-08-28T04:32:57.800Z,17.49
2022-08-28T04:33:57.770Z,17.49
2022-08-28T04:34:57.760Z,17.48
2022-08-28T04:35:57.753Z,17.48
2022-08-28T04:36:57.751Z,17.49
2022-08-28T04:37:58.934Z,17.49
2022-08-28T04:38:57.711Z,17.49
2022-08-28T04:39:57.745Z,17.49
2022-08-28T04:40:57.691Z,17.51
2022-08-28T04:41:57.681Z,17.51
2022-08-28T04:42:57.682Z,17.51
2022-08-28T04:43:57.661Z,17.52
2022-08-28T04:45:04.687Z,17.49
2022-08-28T04:46:00.287Z,17.49
2022-08-28T04:46:58.930Z,17.51
2022-08-28T04:47:57.617Z,17.49
2022-08-28T04:48:57.637Z,17.49
2022-08-28T04:49:57.597Z,17.49
2022-08-28T04:50:57.578Z,17.51
2022-08-28T04:51:57.568Z,17.49
2022-08-28T04:52:57.548Z,17.52
2022-08-28T04:53:57.546Z,17.54
2022-08-28T04:54:57.547Z,17.52
2022-08-28T04:55:57.528Z,17.54
2022-08-28T04:56:57.508Z,17.56
2022-08-28T04:57:57.498Z,17.56
2022-08-28T04:58:57.478Z,17.56
2022-08-28T04:59:57.499Z,17.59
2022-08-28T05:00:57.529Z,17.56
2022-08-28T05:01:57.494Z,17.57
2022-08-28T05:02:57.443Z,17.59
2022-08-28T05:03:57.440Z,17.59
2022-08-28T05:04:57.420Z,17.60
2022-08-28T05:05:57.430Z,17.60
2022-08-28T05:06:57.390Z,17.63
2022-08-28T05:07:57.379Z,17.63
2022-08-28T05:08:57.379Z,17.64
2022-08-28T05:09:57.360Z,17.64
2022-08-28T05:10:57.370Z,17.65
2022-08-28T05:11:57.341Z,17.67
2022-08-28T05:12:57.319Z,17.68
2022-08-28T05:13:57.344Z,17.68
2022-08-28T05:14:57.301Z,17.70
2022-08-28T05:15:57.336Z,17.71
2022-08-28T05:16:57.301Z,17.71
2022-08-28T05:17:57.270Z,17.71
2022-08-28T05:18:57.260Z,17.74
2022-08-28T05:19:57.277Z,17.76
2022-08-28T05:20:57.230Z,17.76
2022-08-28T05:21:57.231Z,17.78
2022-08-28T05:22:57.229Z,17.79
2022-08-28T05:23:57.210Z,17.82
2022-08-28T05:24:57.194Z,17.83
2022-08-28T05:25:57.181Z,17.85
2022-08-28T05:26:57.162Z,17.86
2022-08-28T05:27:57.173Z,17.87
2022-08-28T05:28:57.144Z,17.87
2022-08-28T05:30:01.200Z,17.89
2022-08-28T05:30:57.123Z,17.90
2022-08-28T05:31:57.160Z,17.92
2022-08-28T05:32:57.102Z,17.95
2022-08-28T05:33:57.131Z,17.94
2022-08-28T05:34:57.080Z,17.95
2022-08-28T05:35:57.073Z,17.95
2022-08-28T05:36:57.052Z,18.00
2022-08-28T05:37:57.053Z,17.98
2022-08-28T05:38:57.037Z,18.00
2022-08-28T05:39:57.081Z,18.03
2022-08-28T05:40:57.005Z,18.05
2022-08-28T05:41:57.002Z,18.08
2022-08-28T05:42:56.984Z,18.10
2022-08-28T05:43:56.982Z,18.11
2022-08-28T05:44:56.963Z,18.10
2022-08-28T05:45:57.040Z,18.13
2022-08-28T05:46:56.942Z,18.13
2022-08-28T05:47:56.933Z,18.15
2022-08-28T05:48:56.914Z,18.18
2022-08-28T05:49:56.923Z,18.19
2022-08-28T05:50:57.014Z,18.20
2022-08-28T05:51:56.891Z,18.23
2022-08-28T05:52:56.874Z,18.28
2022-08-28T05:53:56.864Z,18.31
2022-08-28T05:54:56.854Z,18.34
2022-08-28T05:55:56.844Z,18.38
2022-08-28T05:56:56.863Z,18.33
2022-08-28T05:57:56.853Z,18.35
2022-08-28T05:58:56.813Z,18.35
2022-08-28T05:59:56.795Z,18.37
2022-08-28T06:00:56.801Z,18.37
2022-08-28T06:01:59.798Z,18.43
2022-08-28T06:02:57.775Z,18.41
2022-08-28T06:03:56.820Z,18.43
2022-08-28T06:04:56.754Z,18.47
2022-08-28T06:05:56.735Z,18.55
2022-08-28T06:06:56.728Z,18.60
2022-08-28T06:07:56.795Z,18.63
2022-08-28T06:08:58.918Z,18.65
2022-08-28T06:09:56.686Z,18.70
2022-08-28T06:10:56.686Z,18.71
2022-08-28T06:11:56.667Z,18.74
2022-08-28T06:12:56.666Z,18.83
2022-08-28T06:13:56.668Z,18.92
2022-08-28T06:14:56.647Z,18.99
2022-08-28T06:15:56.659Z,19.11
2022-08-28T06:16:56.619Z,19.16
2022-08-28T06:17:56.607Z,19.22
2022-08-28T06:18:56.597Z,19.26
2022-08-28T06:19:56.597Z,19.22
2022-08-28T06:20:56.581Z,19.29
2022-08-28T06:21:56.557Z,19.22
2022-08-28T06:22:56.547Z,19.15
2022-08-28T06:23:56.537Z,19.08
2022-08-28T06:24:56.547Z,19.24
2022-08-28T06:25:57.183Z,19.40
2022-08-28T06:26:58.529Z,19.52
2022-08-28T06:27:56.504Z,19.62
2022-08-28T06:28:56.479Z,19.58
2022-08-28T06:29:56.477Z,19.41
2022-08-28T06:31:22.761Z,19.77
2022-08-28T06:31:57.483Z,20.59
2022-08-28T06:32:56.437Z,21.37
2022-08-28T06:33:56.419Z,22.13
2022-08-28T06:34:56.419Z,22.72
2022-08-28T06:35:56.419Z,22.98
2022-08-28T06:36:56.392Z,23.48
2022-08-28T06:37:56.371Z,23.77
2022-08-28T06:38:56.376Z,23.71
2022-08-28T06:39:56.386Z,23.73
2022-08-28T06:40:56.340Z,23.71
2022-08-28T06:41:56.351Z,23.62
2022-08-28T06:42:56.332Z,23.51
2022-08-28T06:43:56.311Z,23.78
2022-08-28T06:44:56.301Z,23.65
2022-08-28T06:45:56.380Z,24.03
2022-08-28T06:46:56.283Z,23.95
2022-08-28T06:47:56.282Z,23.80
2022-08-28T06:48:56.265Z,23.32
2022-08-28T06:49:56.243Z,23.18
2022-08-28T06:50:56.232Z,23.10
2022-08-28T06:51:56.224Z,23.10
2022-08-28T06:52:56.240Z,23.21
2022-08-28T06:53:56.206Z,23.21
2022-08-28T06:54:56.193Z,23.50
2022-08-28T06:55:56.173Z,23.56
2022-08-28T06:56:56.172Z,23.59
2022-08-28T06:57:56.154Z,24.23
2022-08-28T06:58:56.166Z,23.83
2022-08-28T06:59:56.134Z,23.59
2022-08-28T07:01:02.731Z,23.13
2022-08-28T07:01:57.215Z,23.59
2022-08-28T07:02:56.166Z,23.93
2022-08-28T07:03:56.085Z,24.23
2022-08-28T07:04:56.105Z,24.05
2022-08-28T07:05:56.066Z,24.32
2022-08-28T07:06:56.058Z,24.54
2022-08-28T07:07:56.047Z,24.84
2022-08-28T07:08:56.038Z,24.93
2022-08-28T07:09:56.023Z,25.26
2022-08-28T07:10:56.068Z,25.22
2022-08-28T07:11:55.998Z,25.46
2022-08-28T07:12:55.998Z,25.68
2022-08-28T07:13:55.978Z,25.66
2022-08-28T07:14:55.968Z,24.74
2022-08-28T07:15:56.049Z,24.23
2022-08-28T07:16:55.971Z,24.20
2022-08-28T07:17:55.938Z,24.68
2022-08-28T07:18:55.927Z,25.25
2022-08-28T07:19:55.909Z,25.59
2022-08-28T07:20:55.908Z,25.48
2022-08-28T07:21:55.890Z,25.28
2022-08-28T07:22:55.928Z,25.29
2022-08-28T07:23:55.870Z,25.65
2022-08-28T07:24:55.861Z,25.83
2022-08-28T07:25:55.848Z,25.50
2022-08-28T07:26:55.841Z,25.29
2022-08-28T07:27:55.822Z,25.10
2022-08-28T07:29:09.652Z,25.35
2022-08-28T07:29:56.802Z,25.10
2022-08-28T07:30:55.843Z,25.26
2022-08-28T07:31:55.783Z,24.80
2022-08-28T07:32:55.782Z,24.96
2022-08-28T07:33:55.763Z,25.11
2022-08-28T07:34:55.786Z,25.08
2022-08-28T07:35:55.733Z,25.55
2022-08-28T07:36:55.734Z,26.09
2022-08-28T07:37:55.714Z,25.99
2022-08-28T07:38:55.714Z,25.70
2022-08-28T07:39:55.725Z,26.05
2022-08-28T07:40:55.744Z,26.33
2022-08-28T07:41:55.675Z,26.41
2022-08-28T07:42:55.674Z,26.83
2022-08-28T07:43:55.656Z,27.18
2022-08-28T07:44:55.655Z,27.40
2022-08-28T07:45:55.651Z,27.36
2022-08-28T07:46:55.655Z,27.44
2022-08-28T07:47:55.616Z,27.27
2022-08-28T07:48:55.607Z,27.47
2022-08-28T07:49:55.597Z,27.52
2022-08-28T07:50:55.631Z,27.54
2022-08-28T07:51:55.569Z,27.21
2022-08-28T07:52:55.636Z,26.78
2022-08-28T07:53:55.558Z,26.40
2022-08-28T07:54:55.569Z,25.93
2022-08-28T07:55:55.541Z,25.75
2022-08-28T07:56:55.527Z,25.80
2022-08-28T07:57:55.543Z,25.96
2022-08-28T07:58:55.520Z,26.18
2022-08-28T07:59:55.491Z,26.15
2022-08-28T08:00:55.480Z,25.90
2022-08-28T08:01:55.506Z,25.63
2022-08-28T08:02:55.462Z,25.65
2022-08-28T08:03:57.717Z,25.35
2022-08-28T08:04:56.471Z,25.80
2022-08-28T08:05:55.442Z,26.44
2022-08-28T08:06:58.082Z,27.14
2022-08-28T08:07:55.412Z,27.25
2022-08-28T08:08:55.394Z,26.90
2022-08-28T08:09:55.383Z,27.21
2022-08-28T08:10:55.403Z,27.67
2022-08-28T08:11:55.364Z,28.15
2022-08-28T08:12:55.376Z,28.51
2022-08-28T08:13:55.344Z,27.71
2022-08-28T08:14:55.336Z,27.30
2022-08-28T08:15:55.376Z,26.41
2022-08-28T08:16:55.355Z,26.38
2022-08-28T08:17:55.295Z,26.15
2022-08-28T08:18:55.288Z,25.99
2022-08-28T08:19:55.278Z,25.85
2022-08-28T08:20:55.266Z,25.55
2022-08-28T08:21:55.503Z,25.44
2022-08-28T08:22:55.265Z,25.48
2022-08-28T08:23:55.230Z,26.19
2022-08-28T08:24:55.220Z,26.15
2022-08-28T08:25:55.208Z,25.65
2022-08-28T08:26:59.597Z,25.84
2022-08-28T08:27:56.209Z,26.10
2022-08-28T08:28:55.177Z,25.33
2022-08-28T08:29:55.162Z,24.88
2022-08-28T08:30:55.196Z,24.88
2022-08-28T08:31:55.150Z,25.16
2022-08-28T08:32:55.141Z,25.78
2022-08-28T08:33:55.150Z,25.63
2022-08-28T08:34:55.118Z,25.78
2022-08-28T08:35:55.096Z,25.88
2022-08-28T08:36:55.093Z,26.33
2022-08-28T08:37:55.073Z,26.10
2022-08-28T08:38:59.984Z,26.07
2022-08-28T08:39:56.118Z,25.69
2022-08-28T08:40:55.042Z,25.31
2022-08-28T08:41:55.039Z,24.92
2022-08-28T08:42:55.032Z,25.06
2022-08-28T08:43:55.017Z,25.38
2022-08-28T08:44:55.003Z,25.80
2022-08-28T08:45:55.050Z,25.38
2022-08-28T08:46:54.978Z,25.14
2022-08-28T08:47:54.964Z,24.98
2022-08-28T08:48:54.954Z,24.98
2022-08-28T08:49:54.968Z,25.38
2022-08-28T08:50:54.934Z,25.91
2022-08-28T08:51:54.965Z,25.78
2022-08-28T08:52:54.914Z,25.85
2022-08-28T08:53:54.897Z,26.00
2022-08-28T08:54:59.262Z,25.90
2022-08-28T08:55:54.876Z,25.87
2022-08-28T08:56:54.877Z,25.68
2022-08-28T08:57:54.889Z,25.75
2022-08-28T08:58:54.847Z,25.65
2022-08-28T08:59:54.829Z,25.23
2022-08-28T09:00:54.819Z,25.22
2022-08-28T09:01:54.882Z,25.68
2022-08-28T09:02:54.797Z,26.03
2022-08-28T09:03:54.902Z,25.80
2022-08-28T09:04:55.937Z,25.69
2022-08-28T09:05:54.760Z,25.93
2022-08-28T09:06:54.758Z,26.19
2022-08-28T09:07:54.740Z,26.48
2022-08-28T09:08:54.774Z,26.90
2022-08-28T09:09:54.740Z,27.36
2022-08-28T09:10:54.711Z,27.58
2022-08-28T09:11:56.895Z,27.82
2022-08-28T09:12:54.691Z,28.11
2022-08-28T09:13:54.671Z,28.04
2022-08-28T09:14:54.740Z,28.10
2022-08-28T09:15:54.686Z,27.80
2022-08-28T09:16:54.651Z,27.68
2022-08-28T09:17:54.633Z,27.27
2022-08-28T09:18:54.643Z,26.73
2022-08-28T09:19:54.615Z,26.13
2022-08-28T09:20:54.611Z,25.36
2022-08-28T09:21:54.614Z,25.25
2022-08-28T09:22:54.584Z,25.36
2022-08-28T09:23:54.574Z,25.13
2022-08-28T09:24:54.564Z,25.11
2022-08-28T09:25:54.563Z,25.22
2022-08-28T09:26:54.546Z,25.32
2022-08-28T09:27:54.589Z,25.48
2022-08-28T09:28:54.535Z,25.31
2022-08-28T09:29:54.507Z,25.10
2022-08-28T09:30:54.520Z,24.93
2022-08-28T09:31:54.486Z,25.32
2022-08-28T09:32:54.477Z,25.46
2022-08-28T09:33:54.507Z,25.23
2022-08-28T09:34:54.458Z,25.35
2022-08-28T09:35:54.459Z,25.36
2022-08-28T09:36:54.458Z,25.55
2022-08-28T09:37:54.420Z,25.65
2022-08-28T09:38:54.420Z,26.15
2022-08-28T09:39:54.462Z,26.62
2022-08-28T09:40:54.399Z,27.18
2022-08-28T09:41:54.381Z,27.45
2022-08-28T09:42:54.369Z,26.93
2022-08-28T09:43:54.360Z,25.90
2022-08-28T09:44:54.352Z,25.32
2022-08-28T09:45:54.401Z,25.13
2022-08-28T09:46:54.321Z,24.78
2022-08-28T09:47:54.322Z,24.66
2022-08-28T09:48:54.342Z,24.66
2022-08-28T09:49:54.302Z,24.74
2022-08-28T09:50:54.290Z,24.88
2022-08-28T09:51:54.301Z,24.95
2022-08-28T09:52:54.262Z,25.01
2022-08-28T09:53:54.252Z,24.69
2022-08-28T09:54:54.241Z,24.51
2022-08-28T09:55:54.231Z,24.28
2022-08-28T09:56:54.224Z,24.26
2022-08-28T09:57:54.224Z,24.47
2022-08-28T09:58:54.203Z,24.69
2022-08-28T09:59:54.204Z,24.65
2022-08-28T10:00:54.191Z,24.61
2022-08-28T10:01:54.203Z,24.65
2022-08-28T10:02:54.165Z,24.65
2022-08-28T10:03:54.223Z,24.66
2022-08-28T10:04:54.151Z,24.65
2022-08-28T10:05:54.115Z,24.73
2022-08-28T10:06:54.116Z,24.85
2022-08-28T10:07:54.982Z,24.98
2022-08-28T10:08:54.086Z,25.14
2022-08-28T10:09:54.127Z,25.21
2022-08-28T10:10:54.058Z,25.23
2022-08-28T10:11:54.056Z,25.13
2022-08-28T10:12:54.045Z,24.68
2022-08-28T10:13:54.047Z,24.35
2022-08-28T10:14:54.017Z,24.26
2022-08-28T10:15:54.078Z,24.43
2022-08-28T10:16:54.007Z,24.73
2022-08-28T10:17:53.990Z,25.01
2022-08-28T10:18:53.970Z,24.78
2022-08-28T10:19:53.958Z,24.58
2022-08-28T10:20:53.949Z,24.54
2022-08-28T10:21:53.989Z,24.35
2022-08-28T10:22:53.918Z,23.98
2022-08-28T10:23:53.929Z,23.80
2022-08-28T10:24:53.909Z,23.71
2022-08-28T10:25:53.899Z,23.68
2022-08-28T10:26:53.880Z,23.84
2022-08-28T10:27:53.899Z,24.10
2022-08-28T10:28:53.870Z,24.28
2022-08-28T10:29:53.855Z,24.30
2022-08-28T10:30:53.894Z,24.30
2022-08-28T10:31:53.848Z,24.16
2022-08-28T10:32:53.830Z,23.98
2022-08-28T10:33:53.832Z,24.01
2022-08-28T10:34:53.800Z,24.08
2022-08-28T10:35:53.819Z,23.86
2022-08-28T10:36:53.782Z,23.56
2022-08-28T10:37:53.762Z,23.43
2022-08-28T10:38:53.762Z,23.40
2022-08-28T10:39:53.813Z,23.46
2022-08-28T10:40:53.732Z,23.50
2022-08-28T10:41:53.723Z,23.46
2022-08-28T10:42:53.712Z,23.37
2022-08-28T10:43:53.703Z,23.40
2022-08-28T10:45:01.158Z,23.55
2022-08-28T10:45:53.704Z,23.88
2022-08-28T10:46:53.670Z,24.21
2022-08-28T10:47:53.660Z,24.42
2022-08-28T10:48:53.649Z,24.47
2022-08-28T10:49:53.640Z,24.42
2022-08-28T10:50:53.641Z,24.43
2022-08-28T10:51:53.618Z,24.26
2022-08-28T10:52:53.600Z,24.03
2022-08-28T10:53:53.591Z,23.86
2022-08-28T10:54:53.584Z,23.73
2022-08-28T10:55:53.569Z,23.50
2022-08-28T10:56:56.165Z,23.54
2022-08-28T10:57:53.554Z,23.62
2022-08-28T10:58:53.541Z,23.77
2022-08-28T10:59:53.522Z,23.76
2022-08-28T11:00:53.503Z,23.78
2022-08-28T11:01:53.546Z,23.88
2022-08-28T11:02:53.578Z,23.95
2022-08-28T11:03:53.483Z,23.98
2022-08-28T11:04:58.216Z,24.03
2022-08-28T11:05:54.453Z,24.10
2022-08-28T11:06:53.443Z,24.17
2022-08-28T11:07:53.434Z,24.30
2022-08-28T11:08:53.442Z,24.48
2022-08-28T11:09:53.413Z,24.66
2022-08-28T11:10:53.394Z,24.80
2022-08-28T11:11:53.385Z,24.92
2022-08-28T11:12:53.375Z,24.74
2022-08-28T11:13:53.365Z,24.39
2022-08-28T11:14:53.375Z,24.21
2022-08-28T11:15:53.349Z,24.26
2022-08-28T11:16:53.345Z,24.38
2022-08-28T11:17:53.316Z,24.33
2022-08-28T11:18:53.307Z,24.38
2022-08-28T11:19:53.296Z,24.42
2022-08-28T11:20:53.306Z,24.50
2022-08-28T11:21:53.276Z,24.55
2022-08-28T11:22:53.257Z,24.48
2022-08-28T11:23:53.255Z,24.50
2022-08-28T11:24:53.937Z,24.42
2022-08-28T11:25:53.238Z,24.35
2022-08-28T11:26:53.376Z,24.29
2022-08-28T11:27:53.225Z,24.36
2022-08-28T11:28:53.195Z,24.48
2022-08-28T11:29:53.192Z,24.54
2022-08-28T11:30:53.241Z,24.65
2022-08-28T11:31:53.159Z,24.73
2022-08-28T11:32:53.217Z,24.77
2022-08-28T11:33:53.146Z,24.86
2022-08-28T11:34:53.128Z,25.06
2022-08-28T11:35:53.123Z,25.29
2022-08-28T11:36:53.101Z,25.31
2022-08-28T11:37:53.108Z,25.22
2022-08-28T11:38:53.113Z,25.22
2022-08-28T11:39:53.120Z,25.13
2022-08-28T11:40:53.060Z,24.98
2022-08-28T11:41:53.058Z,24.88
2022-08-28T11:42:53.040Z,24.85
2022-08-28T11:43:53.030Z,24.78
2022-08-28T11:44:53.039Z,24.74
2022-08-28T11:45:53.025Z,24.84
2022-08-28T11:46:52.992Z,24.91
2022-08-28T11:47:52.982Z,25.01
2022-08-28T11:48:52.981Z,24.78
2022-08-28T11:49:52.962Z,24.70
2022-08-28T11:50:52.972Z,24.53
2022-08-28T11:51:52.942Z,24.55
2022-08-28T11:52:52.925Z,24.69
2022-08-28T11:53:52.933Z,24.77
2022-08-28T11:54:52.903Z,24.70
2022-08-28T11:55:52.904Z,24.70
2022-08-28T11:56:52.908Z,24.60
2022-08-28T11:57:52.878Z,24.54
2022-08-28T11:58:52.863Z,24.54
2022-08-28T11:59:52.855Z,24.57
2022-08-28T12:00:52.850Z,24.65
2022-08-28T12:01:52.834Z,24.73
2022-08-28T12:02:52.872Z,24.86
2022-08-28T12:03:52.831Z,24.98
2022-08-28T12:04:52.795Z,25.01
2022-08-28T12:05:52.797Z,24.95
2022-08-28T12:06:52.774Z,24.95
2022-08-28T12:07:52.763Z,24.89
2022-08-28T12:08:52.773Z,24.78
2022-08-28T12:09:52.736Z,24.68
2022-08-28T12:10:52.727Z,24.60
2022-08-28T12:11:52.719Z,24.50
2022-08-28T12:12:52.754Z,24.51
2022-08-28T12:13:52.698Z,24.66
2022-08-28T12:14:52.697Z,24.85
2022-08-28T12:15:52.697Z,24.92
2022-08-28T12:16:52.658Z,24.86
2022-08-28T12:17:52.657Z,24.78
2022-08-28T12:18:52.640Z,24.65
2022-08-28T12:19:56.098Z,24.66
2022-08-28T12:20:52.640Z,24.80
2022-08-28T12:21:52.608Z,24.85
2022-08-28T12:22:52.599Z,24.76
2022-08-28T12:23:52.589Z,24.69
2022-08-28T12:24:52.619Z,24.70
2022-08-28T12:25:52.577Z,24.86
2022-08-28T12:26:52.569Z,24.95
2022-08-28T12:27:52.539Z,25.03
2022-08-28T12:28:52.530Z,25.11
2022-08-28T12:29:52.519Z,25.17
2022-08-28T12:30:52.572Z,25.16
2022-08-28T12:31:52.499Z,25.14
2022-08-28T12:32:52.501Z,25.21
2022-08-28T12:33:52.471Z,25.28
2022-08-28T12:34:52.462Z,25.38
2022-08-28T12:35:52.462Z,25.43
2022-08-28T12:36:52.443Z,25.29
2022-08-28T12:37:53.354Z,25.14
2022-08-28T12:38:52.443Z,25.22
2022-08-28T12:39:52.525Z,25.26
2022-08-28T12:40:52.393Z,25.08
2022-08-28T12:41:52.390Z,25.13
2022-08-28T12:42:55.191Z,25.26
2022-08-28T12:43:52.372Z,25.41
2022-08-28T12:44:52.373Z,25.40
2022-08-28T12:45:52.406Z,25.44
2022-08-28T12:46:52.334Z,25.48
2022-08-28T12:47:52.323Z,25.44
2022-08-28T12:48:52.434Z,25.48
2022-08-28T12:49:52.303Z,25.50
2022-08-28T12:50:52.305Z,25.51
2022-08-28T12:51:52.282Z,25.51